createdAt,value
2022-08-09T00:01:54.798Z,3.38
2022-08-09T00:04:34.992Z,2.60
2022-08-09T00:07:02.663Z,3.25
2022-08-09T00:09:29.325Z,3.22
2022-08-09T00:12:03.608Z,3.10
2022-08-09T00:14:38.055Z,2.63
2022-08-09T00:17:05.369Z,3.13
2022-08-09T00:19:31.927Z,3.42
2022-08-09T00:22:03.667Z,2.85
2022-08-09T00:24:32.080Z,3.10
2022-08-09T00:27:05.090Z,3.22
2022-08-09T00:30:10.447Z,3.10
2022-08-09T00:32:26.743Z,3.38
2022-08-09T00:34:53.955Z,3.15
2022-08-09T00:37:20.533Z,3.50
2022-08-09T00:40:13.770Z,3.10
2022-08-09T00:44:10.585Z,3.53
2022-08-09T00:45:20.346Z,3.20
2022-08-09T00:47:47.575Z,3.35
2022-08-09T00:50:15.178Z,3.72
2022-08-09T00:52:42.175Z,2.90
2022-08-09T00:55:16.688Z,3.30
2022-08-09T00:57:59.203Z,4.07
2022-08-09T01:00:26.715Z,3.67
2022-08-09T01:03:13.701Z,3.67
2022-08-09T01:05:57.553Z,3.78
2022-08-09T01:08:40.582Z,3.78
2022-08-09T01:11:34.434Z,4.22
2022-08-09T01:17:12.577Z,4.63
2022-08-09T01:20:04.326Z,5.18
2022-08-09T01:22:38.144Z,4.35
2022-08-09T01:25:37.511Z,4.10
2022-08-09T01:28:09.827Z,4.28
2022-08-09T01:30:52.246Z,4.28
2022-08-09T01:33:22.859Z,4.50
2022-08-09T01:36:07.674Z,4.68
2022-08-09T01:38:41.552Z,4.18
2022-08-09T01:41:26.106Z,4.93
2022-08-09T01:43:56.034Z,4.10
2022-08-09T01:49:18.677Z,4.60
2022-08-09T01:52:07.054Z,4.72
2022-08-09T01:54:50.972Z,4.47
2022-08-09T01:57:20.663Z,4.32
2022-08-09T01:59:52.356Z,4.82
2022-08-09T02:02:30.999Z,4.78
2022-08-09T02:05:05.282Z,4.40
2022-08-09T02:08:41.054Z,5.07
2022-08-09T02:10:29.745Z,4.90
2022-08-09T02:12:58.574Z,5.35
2022-08-09T02:15:26.995Z,5.07
2022-08-09T02:18:14.340Z,5.28
2022-08-09T02:20:48.834Z,5.05
2022-08-09T02:23:22.119Z,4.88
2022-08-09T02:25:55.602Z,4.97
2022-08-09T02:28:29.414Z,5.28
2022-08-09T02:31:03.144Z,5.47
2022-08-09T02:33:58.444Z,5.53
2022-08-09T02:36:29.940Z,5.82
2022-08-09T02:39:01.226Z,5.25
2022-08-09T02:41:37.170Z,5.65
2022-08-09T02:44:13.596Z,5.45
2022-08-09T02:46:55.774Z,5.20
2022-08-09T02:49:27.141Z,5.15
2022-08-09T02:52:06.453Z,5.65
2022-08-09T02:54:35.679Z,5.50
2022-08-09T02:57:23.483Z,5.60
2022-08-09T03:00:11.377Z,6.18
2022-08-09T03:02:40.073Z,6.28
2022-08-09T03:07:55.450Z,5.95
2022-08-09T03:10:23.205Z,5.85
2022-08-09T03:12:52.114Z,6.38
2022-08-09T03:15:20.767Z,6.07
2022-08-09T03:17:57.774Z,6.22
2022-08-09T03:20:29.568Z,6.43
2022-08-09T03:23:00.286Z,6.63
2022-08-09T03:25:58.240Z,7.10
2022-08-09T03:28:30.541Z,7.43
2022-08-09T03:30:58.075Z,6.65
2022-08-09T03:33:26.949Z,7.15
2022-08-09T03:36:16.836Z,6.45
2022-08-09T03:38:44.611Z,6.93
2022-08-09T03:41:15.577Z,7.68
2022-08-09T03:43:43.427Z,7.03
2022-08-09T03:46:30.442Z,7.72
2022-08-09T03:49:04.060Z,7.05
2022-08-09T03:51:43.866Z,7.07
2022-08-09T03:54:29.414Z,6.65
2022-08-09T03:59:27.183Z,7.15
2022-08-09T04:01:56.578Z,7.15
2022-08-09T04:04:27.140Z,7.38
2022-08-09T04:07:03.980Z,8.40
2022-08-09T04:09:41.945Z,7.22
2022-08-09T04:12:30.956Z,7.50
2022-08-09T04:15:00.637Z,7.55
2022-08-09T04:17:29.384Z,8.43
2022-08-09T04:19:56.812Z,7.18
2022-08-09T04:22:23.746Z,7.90
2022-08-09T04:24:50.779Z,8.93
2022-08-09T04:27:22.142Z,8.25
2022-08-09T04:29:50.275Z,8.40
2022-08-09T04:32:31.341Z,8.20
2022-08-09T04:35:01.646Z,8.23
2022-08-09T04:37:42.168Z,7.97
2022-08-09T04:40:18.969Z,7.93
2022-08-09T04:42:55.741Z,8.70
2022-08-09T04:45:23.707Z,8.10
2022-08-09T04:48:00.984Z,8.00
2022-08-09T04:50:31.856Z,7.97
2022-08-09T04:53:02.294Z,8.38
2022-08-09T04:55:39.704Z,7.82
2022-08-09T04:58:15.679Z,7.72
2022-08-09T05:00:43.169Z,8.07
2022-08-09T05:03:40.480Z,8.38
2022-08-09T05:06:06.554Z,6.97
2022-08-09T05:08:35.649Z,8.30
2022-08-09T05:11:03.633Z,7.55
2022-08-09T05:13:34.254Z,8.75
2022-08-09T05:16:06.635Z,8.05
2022-08-09T05:18:37.771Z,8.80
2022-08-09T05:21:10.056Z,7.20
2022-08-09T05:23:55.291Z,8.43
2022-08-09T05:26:36.702Z,8.18
2022-08-09T05:29:17.499Z,7.68
2022-08-09T05:34:30.773Z,7.07
2022-08-09T05:37:06.019Z,7.43
2022-08-09T05:39:43.200Z,7.18
2022-08-09T05:42:17.375Z,7.40
2022-08-09T05:44:50.836Z,7.75
2022-08-09T05:47:23.055Z,7.50
2022-08-09T05:50:25.101Z,7.80
2022-08-09T05:52:42.266Z,7.55
2022-08-09T05:55:21.128Z,7.20
2022-08-09T05:57:56.951Z,6.63
2022-08-09T06:00:26.636Z,7.45
2022-08-09T06:02:59.646Z,7.18
2022-08-09T06:05:31.255Z,6.82
2022-08-09T06:08:19.583Z,6.95
2022-08-09T06:10:51.752Z,6.35
2022-08-09T06:13:20.630Z,5.72
2022-08-09T06:15:51.745Z,6.50
2022-08-09T06:18:20.893Z,6.38
2022-08-09T06:20:54.847Z,7.50
2022-08-09T06:23:57.962Z,5.93
2022-08-09T06:26:20.570Z,5.70
2022-08-09T06:29:00.313Z,5.60
2022-08-09T06:31:40.553Z,5.85
2022-08-09T06:34:17.599Z,5.05
2022-08-09T06:36:44.957Z,6.60
2022-08-09T06:39:12.664Z,6.40
2022-08-09T06:42:07.884Z,5.60
2022-08-09T06:44:27.142Z,4.55
2022-08-09T06:46:55.254Z,4.70
2022-08-09T06:49:29.223Z,4.85
2022-08-09T06:52:10.624Z,5.45
2022-08-09T06:54:39.101Z,4.05
2022-08-09T06:57:08.479Z,4.20
2022-08-09T07:00:49.911Z,4.32
2022-08-09T07:02:22.091Z,4.43
2022-08-09T07:04:56.239Z,4.53
2022-08-09T07:07:58.825Z,4.78
2022-08-09T07:10:22.332Z,4.05
2022-08-09T07:12:57.459Z,5.07
2022-08-09T07:16:38.720Z,3.33
2022-08-09T07:18:11.386Z,2.67
2022-08-09T07:20:40.986Z,2.88
2022-08-09T07:23:18.858Z,3.03
2022-08-09T07:25:52.224Z,2.72
2022-08-09T07:28:29.090Z,2.30
2022-08-09T07:30:56.144Z,2.15
2022-08-09T07:33:23.167Z,2.08
2022-08-09T07:35:54.263Z,2.60
2022-08-09T07:38:23.189Z,2.17
2022-08-09T07:41:09.928Z,1.80
2022-08-09T07:43:41.022Z,2.00
2022-08-09T07:46:19.053Z,1.98
2022-08-09T07:48:46.677Z,2.83
2022-08-09T07:52:06.016Z,1.63
2022-08-09T07:54:12.279Z,2.50
2022-08-09T07:56:44.876Z,1.83
2022-08-09T07:59:33.719Z,2.05
2022-08-09T08:02:05.034Z,1.70
2022-08-09T08:04:33.001Z,1.70
2022-08-09T08:07:09.535Z,2.13
2022-08-09T08:09:55.287Z,1.90
2022-08-09T08:12:37.217Z,1.73
2022-08-09T08:15:16.684Z,1.40
2022-08-09T08:17:53.064Z,1.90
2022-08-09T08:20:28.530Z,1.70
2022-08-09T08:23:01.440Z,1.70
2022-08-09T08:25:44.617Z,1.85
2022-08-09T08:28:14.239Z,1.70
2022-08-09T08:30:41.936Z,1.38
2022-08-09T08:33:11.834Z,1.63
2022-08-09T08:35:58.244Z,1.30
2022-08-09T08:38:26.056Z,1.75
2022-08-09T08:40:55.949Z,1.73
2022-08-09T08:43:23.816Z,1.42
2022-08-09T08:46:03.770Z,1.42
2022-08-09T08:48:51.107Z,1.25
2022-08-09T08:51:18.764Z,0.85
2022-08-09T08:54:03.015Z,0.82
2022-08-09T08:56:34.193Z,0.82
2022-08-09T08:59:07.689Z,1.00
2022-08-09T09:01:51.958Z,1.10
2022-08-09T09:04:27.410Z,0.68
2022-08-09T09:06:58.179Z,1.33
2022-08-09T09:09:58.000Z,0.80
2022-08-09T09:12:19.331Z,0.88
2022-08-09T09:14:49.895Z,0.70
2022-08-09T09:17:18.663Z,1.00
2022-08-09T09:19:47.713Z,1.00
2022-08-09T09:22:17.356Z,0.63
2022-08-09T09:25:00.752Z,0.80
2022-08-09T09:28:06.804Z,0.70
2022-08-09T09:30:39.931Z,0.70
2022-08-09T09:33:15.887Z,0.80
2022-08-09T09:36:20.069Z,1.00
2022-08-09T09:38:56.830Z,0.52
2022-08-09T09:41:25.011Z,0.75
2022-08-09T09:44:12.148Z,0.93
2022-08-09T09:46:50.450Z,1.27
2022-08-09T09:49:32.026Z,2.25
2022-08-09T09:52:33.735Z,1.92
2022-08-09T09:55:16.141Z,1.10
2022-08-09T09:58:01.051Z,0.85
2022-08-09T10:00:31.405Z,1.00
2022-08-09T10:02:59.624Z,0.70
2022-08-09T10:05:26.781Z,0.90
2022-08-09T10:08:27.411Z,1.30
2022-08-09T10:10:51.790Z,0.65
2022-08-09T10:13:24.794Z,0.60
2022-08-09T10:16:55.556Z,0.70
2022-08-09T10:18:54.509Z,0.60
2022-08-09T10:21:22.676Z,0.70
2022-08-09T10:23:51.261Z,0.80
2022-08-09T10:26:21.823Z,0.65
2022-08-09T10:29:35.922Z,0.40
2022-08-09T10:32:35.631Z,0.88
2022-08-09T10:34:33.512Z,0.40
2022-08-09T10:37:02.329Z,0.70
2022-08-09T10:39:30.125Z,0.80
2022-08-09T10:42:08.359Z,0.52
2022-08-09T10:44:37.598Z,0.90
2022-08-09T10:48:12.865Z,0.63
2022-08-09T10:50:18.130Z,0.52
2022-08-09T10:53:10.417Z,0.60
2022-08-09T10:55:58.735Z,0.60
2022-08-09T10:58:33.669Z,0.47
2022-08-09T11:03:13.503Z,0.60
2022-08-09T11:04:19.961Z,0.70
2022-08-09T11:07:00.966Z,0.50
2022-08-09T11:09:47.499Z,0.60
2022-08-09T11:12:29.970Z,0.73
2022-08-09T11:14:57.355Z,0.40
2022-08-09T11:17:27.243Z,0.40
2022-08-09T11:20:18.012Z,0.70
2022-08-09T11:22:56.768Z,0.40
2022-08-09T11:25:36.230Z,0.50
2022-08-09T11:28:34.004Z,0.73
2022-08-09T11:31:04.212Z,0.60
2022-08-09T11:33:54.260Z,0.75
2022-08-09T11:36:35.358Z,0.60
2022-08-09T11:39:03.732Z,0.60
2022-08-09T11:41:37.621Z,0.57
2022-08-09T11:44:05.346Z,0.45
2022-08-09T11:46:52.992Z,0.45
2022-08-09T11:50:53.932Z,0.40
2022-08-09T11:53:58.951Z,0.75
2022-08-09T11:55:53.782Z,0.60
2022-08-09T11:58:32.984Z,0.60
2022-08-09T12:01:15.570Z,0.60
2022-08-09T12:04:00.807Z,0.57
2022-08-09T12:06:32.458Z,0.52
2022-08-09T12:09:04.453Z,0.80
2022-08-09T12:11:37.945Z,1.00
2022-08-09T12:14:36.776Z,0.60
2022-08-09T12:17:27.935Z,0.47
2022-08-09T12:19:59.736Z,0.80
2022-08-09T12:22:27.108Z,1.55
2022-08-09T12:25:17.282Z,0.75
2022-08-09T12:28:59.850Z,1.10
2022-08-09T12:30:35.824Z,0.70
2022-08-09T12:33:05.550Z,0.80
2022-08-09T12:35:40.951Z,0.60
2022-08-09T12:38:37.852Z,0.90
2022-08-09T12:41:05.509Z,0.80
2022-08-09T12:44:05.339Z,0.80
2022-08-09T12:46:22.218Z,0.77
2022-08-09T12:48:51.325Z,0.90
2022-08-09T12:51:52.524Z,0.52
2022-08-09T12:54:07.594Z,0.60
2022-08-09T12:56:50.947Z,0.65
2022-08-09T12:59:22.592Z,1.25
2022-08-09T13:01:58.736Z,0.90
2022-08-09T13:04:36.147Z,0.57
2022-08-09T13:07:16.897Z,0.70
2022-08-09T13:09:55.845Z,0.60
2022-08-09T13:12:28.347Z,0.52
2022-08-09T13:15:07.304Z,0.70
2022-08-09T13:18:03.839Z,0.82
2022-08-09T13:20:37.495Z,0.90
2022-08-09T13:24:06.275Z,0.65
2022-08-09T13:26:05.522Z,0.60
2022-08-09T13:28:34.351Z,0.50
2022-08-09T13:32:14.405Z,0.93
2022-08-09T13:33:57.351Z,0.57
2022-08-09T13:36:41.279Z,0.47
2022-08-09T13:41:50.637Z,0.40
2022-08-09T13:42:11.001Z,0.52
2022-08-09T13:44:42.727Z,0.52
2022-08-09T13:47:29.289Z,0.40
2022-08-09T13:50:12.568Z,0.57
2022-08-09T13:52:46.172Z,0.55
2022-08-09T13:55:15.418Z,0.50
2022-08-09T13:57:56.209Z,0.40
2022-08-09T14:00:27.385Z,0.47
2022-08-09T14:03:02.828Z,0.65
2022-08-09T14:05:58.605Z,0.43
2022-08-09T14:08:28.602Z,0.38
2022-08-09T14:10:57.032Z,0.30
2022-08-09T14:14:15.896Z,0.52
2022-08-09T14:16:14.642Z,0.40
2022-08-09T14:18:45.843Z,0.43
2022-08-09T14:21:20.395Z,0.50
2022-08-09T14:23:55.159Z,0.70
2022-08-09T14:26:32.143Z,0.30
2022-08-09T14:29:02.806Z,0.45
2022-08-09T14:31:49.645Z,0.50
2022-08-09T14:34:17.594Z,0.43
2022-08-09T14:36:55.397Z,0.52
2022-08-09T14:39:22.163Z,0.47
2022-08-09T14:42:08.813Z,0.63
2022-08-09T14:44:59.607Z,0.60
2022-08-09T14:47:42.891Z,0.60
2022-08-09T14:50:09.550Z,0.60
2022-08-09T14:52:38.099Z,0.68
2022-08-09T14:55:06.892Z,0.57
2022-08-09T14:57:43.233Z,0.52
2022-08-09T15:00:18.577Z,0.68
2022-08-09T15:02:47.730Z,0.60
2022-08-09T15:05:19.077Z,0.43
2022-08-09T15:07:54.699Z,0.80
2022-08-09T15:10:24.972Z,0.40
2022-08-09T15:12:53.547Z,0.45
2022-08-09T15:15:21.069Z,0.52
2022-08-09T15:17:52.263Z,0.50
2022-08-09T15:21:55.524Z,0.60
2022-08-09T15:24:01.170Z,0.43
2022-08-09T15:25:58.501Z,0.50
2022-08-09T15:28:27.821Z,0.35
2022-08-09T15:31:08.680Z,0.70
2022-08-09T15:34:18.326Z,0.60
2022-08-09T15:36:29.159Z,0.57
2022-08-09T15:39:00.458Z,0.50
2022-08-09T15:41:31.520Z,0.40
2022-08-09T15:44:01.732Z,0.60
2022-08-09T15:46:33.813Z,0.73
2022-08-09T15:49:23.102Z,0.60
2022-08-09T15:52:03.840Z,0.63
2022-08-09T15:54:46.134Z,0.70
2022-08-09T15:57:34.644Z,1.73
2022-08-09T16:00:24.308Z,2.10
2022-08-09T16:02:54.628Z,2.90
2022-08-09T16:05:23.435Z,1.33
2022-08-09T16:07:50.549Z,0.60
2022-08-09T16:10:56.006Z,0.52
2022-08-09T16:13:04.638Z,0.80
2022-08-09T16:16:04.363Z,1.63
2022-08-09T16:18:32.237Z,0.80
2022-08-09T16:20:59.212Z,0.70
2022-08-09T16:23:26.507Z,0.70
2022-08-09T16:26:01.004Z,0.70
2022-08-09T16:28:29.866Z,0.50
2022-08-09T16:30:58.907Z,0.50
2022-08-09T16:33:26.510Z,0.50
2022-08-09T16:35:58.122Z,0.90
2022-08-09T16:40:53.973Z,0.80
2022-08-09T16:43:22.295Z,1.02
2022-08-09T16:45:53.755Z,0.82
2022-08-09T16:48:43.401Z,0.90
2022-08-09T16:51:14.229Z,0.70
2022-08-09T16:54:08.867Z,0.60
2022-08-09T16:56:30.959Z,0.73
2022-08-09T16:58:58.843Z,0.57
2022-08-09T17:01:26.190Z,0.50
2022-08-09T17:03:54.362Z,0.60
2022-08-09T17:06:31.490Z,1.02
2022-08-09T17:09:17.673Z,1.30
2022-08-09T17:11:48.206Z,0.70
2022-08-09T17:14:28.062Z,0.65
2022-08-09T17:17:01.976Z,0.60
2022-08-09T17:19:47.558Z,0.73
2022-08-09T17:22:23.658Z,0.70
2022-08-09T17:24:55.755Z,0.80
2022-08-09T17:27:29.832Z,0.73
2022-08-09T17:29:56.433Z,0.55
2022-08-09T17:32:26.483Z,0.90
2022-08-09T17:35:10.828Z,2.35
2022-08-09T17:38:10.264Z,1.05
2022-08-09T17:40:26.444Z,1.10
2022-08-09T17:42:59.541Z,0.70
2022-08-09T17:46:01.851Z,0.90
2022-08-09T17:48:16.895Z,0.65
2022-08-09T17:50:48.473Z,0.90
2022-08-09T17:53:22.751Z,0.70
2022-08-09T17:55:54.132Z,0.82
2022-08-09T17:58:26.781Z,0.90
2022-08-09T18:00:56.517Z,0.90
2022-08-09T18:03:25.084Z,1.05
2022-08-09T18:05:52.967Z,0.93
2022-08-09T18:08:21.872Z,0.85
2022-08-09T18:11:00.942Z,1.07
2022-08-09T18:13:42.999Z,0.90
2022-08-09T18:16:16.977Z,0.93
2022-08-09T18:18:56.325Z,1.17
2022-08-09T18:21:24.409Z,1.88
2022-08-09T18:24:10.270Z,1.13
2022-08-09T18:26:46.494Z,1.20
2022-08-09T18:30:35.135Z,1.02
2022-08-09T18:32:01.022Z,1.10
2022-08-09T18:34:31.746Z,1.20
2022-08-09T18:36:58.839Z,1.88
2022-08-09T18:39:25.824Z,1.00
2022-08-09T18:42:08.720Z,1.60
2022-08-09T18:44:35.835Z,1.23
2022-08-09T18:47:08.155Z,1.35
2022-08-09T18:49:42.925Z,1.58
2022-08-09T18:52:11.543Z,1.48
2022-08-09T18:54:39.093Z,1.20
2022-08-09T18:57:08.882Z,1.80
2022-08-09T18:59:37.683Z,1.73
2022-08-09T19:02:18.602Z,1.10
2022-08-09T19:04:47.652Z,1.00
2022-08-09T19:07:32.019Z,1.30
2022-08-09T19:10:16.522Z,1.20
2022-08-09T19:12:50.980Z,1.70
2022-08-09T19:15:27.301Z,2.45
2022-08-09T19:17:58.269Z,1.40
2022-08-09T19:20:25.882Z,1.25
2022-08-09T19:22:54.460Z,1.40
2022-08-09T19:25:42.626Z,1.20
2022-08-09T19:28:13.498Z,1.20
2022-08-09T19:30:44.466Z,1.20
2022-08-09T19:33:17.953Z,0.93
2022-08-09T19:35:57.114Z,1.30
2022-08-09T19:38:24.426Z,1.05
2022-08-09T19:40:51.869Z,1.50
2022-08-09T19:43:57.739Z,1.52
2022-08-09T19:46:08.646Z,1.30
2022-08-09T19:49:01.759Z,1.38
2022-08-09T19:51:30.853Z,1.38
2022-08-09T19:54:01.105Z,1.25
2022-08-09T19:56:29.566Z,1.25
2022-08-09T19:59:18.174Z,1.10
2022-08-09T20:01:47.770Z,1.38
2022-08-09T20:04:37.446Z,1.30
2022-08-09T20:07:21.042Z,1.20
2022-08-09T20:09:48.108Z,1.40
2022-08-09T20:12:27.143Z,1.33
2022-08-09T20:15:04.723Z,1.38
2022-08-09T20:17:54.487Z,1.08
2022-08-09T20:20:21.646Z,1.10
2022-08-09T20:22:48.807Z,1.17
2022-08-09T20:25:22.705Z,1.42
2022-08-09T20:27:49.989Z,1.50
2022-08-09T20:30:18.074Z,1.42
2022-08-09T20:32:52.334Z,1.00
2022-08-09T20:35:20.494Z,1.13
2022-08-09T20:38:22.266Z,1.20
2022-08-09T20:40:35.210Z,1.05
2022-08-09T20:43:19.081Z,1.27
2022-08-09T20:45:58.643Z,1.70
2022-08-09T20:48:31.391Z,1.52
2022-08-09T20:50:59.587Z,1.35
2022-08-09T20:53:35.236Z,1.40
2022-08-09T20:56:20.363Z,1.40
2022-08-09T20:58:54.552Z,1.20
2022-08-09T21:01:35.398Z,1.25
2022-08-09T21:05:52.881Z,1.10
2022-08-09T21:07:11.385Z,1.20
2022-08-09T21:09:45.227Z,1.20
2022-08-09T21:14:48.414Z,1.65
2022-08-09T21:18:20.757Z,1.27
2022-08-09T21:20:22.635Z,1.40
2022-08-09T21:22:54.435Z,1.20
2022-08-09T21:25:44.420Z,1.38
2022-08-09T21:28:34.074Z,1.40
2022-08-09T21:31:16.597Z,1.45
2022-08-09T21:33:45.629Z,1.42
2022-08-09T21:36:17.699Z,1.20
2022-08-09T21:38:45.577Z,1.50
2022-08-09T21:41:17.693Z,1.33
2022-08-09T21:43:56.560Z,1.70
2022-08-09T21:46:24.522Z,1.33
2022-08-09T21:48:52.074Z,1.38
2022-08-09T21:51:23.900Z,1.30
2022-08-09T21:53:54.851Z,1.25
2022-08-09T21:56:33.808Z,1.20
2022-08-09T21:59:09.278Z,1.20
2022-08-09T22:04:16.873Z,1.00
2022-08-09T22:06:59.069Z,1.20
2022-08-09T22:09:28.720Z,1.67
2022-08-09T22:12:17.968Z,1.38
2022-08-09T22:14:42.517Z,1.13
2022-08-09T22:17:09.102Z,1.50
2022-08-09T22:19:58.324Z,1.30
2022-08-09T22:22:24.541Z,1.33
2022-08-09T22:26:04.214Z,1.15
2022-08-09T22:27:39.066Z,1.10
2022-08-09T22:30:07.737Z,1.20
2022-08-09T22:32:34.766Z,1.40
2022-08-09T22:35:06.801Z,1.40
2022-08-09T22:37:49.821Z,1.55
2022-08-09T22:40:34.317Z,1.30
2022-08-09T22:43:01.031Z,1.40
2022-08-09T22:48:14.951Z,1.48
2022-08-09T22:48:35.088Z,1.63
2022-08-09T22:51:10.453Z,1.30
2022-08-09T22:54:02.050Z,1.40
2022-08-09T22:56:34.000Z,1.30
2022-08-09T22:59:05.998Z,1.23
2022-08-09T23:01:48.861Z,1.23
2022-08-09T23:04:15.444Z,1.40
2022-08-09T23:07:02.390Z,1.23
2022-08-09T23:09:28.949Z,1.55
2022-08-09T23:11:55.629Z,1.30
2022-08-09T23:14:37.252Z,1.08
2022-08-09T23:17:08.206Z,1.45
2022-08-09T23:20:00.668Z,1.35
2022-08-09T23:22:21.313Z,1.40
2022-08-09T23:24:48.509Z,1.50
2022-08-09T23:27:15.723Z,1.58
2022-08-09T23:29:42.225Z,1.40
2022-08-09T23:32:08.776Z,1.20
2022-08-09T23:34:35.378Z,1.27
2022-08-09T23:37:01.887Z,1.83
2022-08-09T23:39:28.629Z,1.40
2022-08-09T23:41:55.189Z,1.20
2022-08-09T23:44:22.351Z,1.10
2022-08-09T23:46:57.209Z,1.13
2022-08-09T23:49:24.733Z,1.52
2022-08-09T23:51:52.048Z,1.00
2022-08-09T23:54:18.877Z,1.55
2022-08-09T23:56:54.778Z,1.30
2022-08-09T23:59:23.643Z,1.40
